Latest Weather Observations for Rhyll

IDV60801

Issued at 3:31 pm EST Friday 4 September 2015 (issued every 30 minutes, with the page automatically refreshed every 10 minutes)

About weather observations | Map of weather stations | Latest weather observations for VIC | Other Formats
Station Details ID: 086373 Name: RHYLL Lat: -38.46 Lon: 145.31 Height: 13.4 m
Data from the previous 72 hours. | See also: Recent months at Rhyll
Date/Time
EST
Temp
°C
App
Temp
°C
Dew
Point
Rel
Hum
%
Delta-T
°C
Wind Press
QNH
hPa
Press
MSL
hPa
Rain
since 9 am
mm
Dir
 
Spd
km/h
Gust
km/h
Spd
kts
Gust
kts
04/03:30pm 11.9 8.5 6.0 67 2.7 WSW 13 20 7 11 1023.8 1023.8 0.0
04/03:00pm 11.7 8.3 5.8 67 2.7 WSW 13 20 7 11 1023.8 1023.8 0.0
04/02:30pm 12.1 8.6 5.5 64 3.1 WSW 13 22 7 12 1023.8 1023.8 0.0
04/02:00pm 12.0 8.8 5.2 63 3.1 W 11 19 6 10 1023.9 1023.9 0.0
04/01:30pm 11.9 8.2 4.4 60 3.4 WSW 13 22 7 12 1024.2 1024.2 0.0
04/01:00pm 12.3 9.0 4.5 59 3.5 WSW 11 20 6 11 1024.3 1024.3 0.0
04/12:30pm 13.3 10.9 5.2 58 3.8 WSW 7 15 4 8 1024.7 1024.7 0.0
04/12:00pm 12.0 8.3 4.7 61 3.3 WSW 13 22 7 12 1025.1 1025.1 0.0
04/11:30am 12.2 8.4 3.7 56 3.8 WSW 13 19 7 10 1025.3 1025.3 0.0
04/11:00am 11.9 9.1 5.1 63 3.1 SW 9 20 5 11 1025.5 1025.5 0.0
04/10:30am 11.3 7.0 5.2 66 2.8 SW 17 28 9 15 1025.5 1025.5 0.0
04/10:00am 11.2 8.0 4.9 65 2.8 WSW 11 17 6 9 1025.5 1025.5 0.0
04/09:30am 11.5 8.1 3.8 59 3.4 SW 11 20 6 11 1025.5 1025.5 0.0
04/09:00am 11.1 8.0 3.4 59 3.4 SSW 9 15 5 8 1025.5 1025.5 0.0
04/08:30am 10.5 7.3 2.8 59 3.3 SW 9 15 5 8 1025.4 1025.4 0.0
04/08:00am 10.0 7.4 3.3 63 2.9 SW 6 9 3 5 1025.1 1025.1 0.0
04/07:30am 9.9 7.4 3.6 65 2.7 SW 6 13 3 7 1025.0 1025.0 0.0
04/07:00am 9.8 7.0 3.3 64 2.8 SSW 7 13 4 7 1024.7 1024.7 0.0
04/06:30am 9.6 6.8 2.9 63 2.9 SSW 7 15 4 8 1024.4 1024.4 0.0
04/06:00am 9.7 6.1 2.8 62 2.9 SSW 11 20 6 11 1024.2 1024.2 0.0
04/05:30am 9.4 6.7 2.5 62 2.9 SW 6 9 3 5 1024.1 1024.1 0.0
04/05:00am 9.7 4.9 2.6 61 3.0 SW 17 30 9 16 1023.8 1023.8 0.0
04/04:30am 10.0 6.5 3.7 65 2.8 SSW 11 20 6 11 1023.4 1023.4 0.0
04/04:00am 9.7 6.5 2.8 62 2.9 SW 9 13 5 7 1023.4 1023.4 0.0
04/03:30am 9.7 6.4 2.6 61 3.0 SW 9 13 5 7 1023.4 1023.4 0.0
04/03:00am 9.9 6.3 3.0 62 3.0 SW 11 19 6 10 1023.4 1023.4 0.0
04/02:30am 10.0 6.9 3.5 64 2.8 SW 9 15 5 8 1023.2 1023.2 0.0
04/02:00am 9.9 7.1 3.2 63 2.9 SW 7 11 4 6 1023.5 1023.5 0.0
04/01:30am 9.8 6.9 2.6 61 3.1 WSW 7 13 4 7 1023.5 1023.5 0.0
04/01:00am 9.8 6.5 2.6 61 3.1 SW 9 13 5 7 1023.5 1023.5 0.0
04/12:30am 10.0 6.8 2.8 61 3.1 SW 9 19 5 10 1023.4 1023.4 0.0
04/12:00am 10.0 6.8 3.1 62 3.0 WSW 9 20 5 11 1023.3 1023.3 0.0
 
Date/Time
EST
Temp
°C
App
Temp
°C
Dew
Point
Rel
Hum
%
Delta-T
°C
Wind Press
QNH
hPa
Press
MSL
hPa
Rain
since 9 am
mm
Dir
 
Spd
km/h
Gust
km/h
Spd
kts
Gust
kts
03/11:30pm 10.1 7.0 3.6 64 2.8 SW 9 20 5 11 1023.1 1023.1 0.0
03/11:00pm 10.1 7.0 3.8 65 2.8 SW 9 19 5 10 1023.1 1023.1 0.0
03/10:30pm 10.2 6.6 4.8 69 2.4 SW 13 20 7 11 1023.0 1023.0 0.0
03/10:00pm 10.0 6.3 4.6 69 2.4 SW 13 20 7 11 1022.6 1022.6 0.0
03/09:30pm 9.8 6.5 4.4 69 2.4 SW 11 19 6 10 1022.4 1022.4 0.0
03/09:00pm 10.0 6.0 4.8 70 2.3 SW 15 24 8 13 1021.9 1021.9 0.0
03/08:30pm 9.8 5.4 5.0 72 2.2 SW 17 26 9 14 1021.5 1021.5 0.0
03/08:00pm 9.8 6.0 4.0 67 2.5 SW 13 22 7 12 1021.4 1021.4 0.0
03/07:30pm 10.0 6.4 5.2 72 2.2 SW 13 20 7 11 1021.1 1021.1 0.0
03/07:00pm 10.4 6.2 5.8 73 2.1 SSW 17 30 9 16 1020.7 1020.7 0.0
03/06:30pm 10.5 5.9 5.7 72 2.2 SSW 19 33 10 18 1020.2 1020.2 0.0
03/06:00pm 10.7 6.6 6.1 73 2.1 SSW 17 32 9 17 1019.9 1019.9 0.0
03/05:30pm 11.0 6.9 6.2 72 2.2 SSW 17 30 9 16 1019.4 1019.4 0.0
03/05:00pm 11.6 7.7 6.9 73 2.2 SSW 17 32 9 17 1018.8 1018.8 0.0
03/04:30pm 12.1 7.7 7.4 73 2.3 SSW 20 33 11 18 1018.2 1018.2 0.0
03/04:00pm 12.6 8.3 7.7 72 2.4 SSW 20 37 11 20 1017.7 1017.7 0.0
03/03:30pm 12.5 8.3 7.6 72 2.4 SSW 19 32 10 17 1017.4 1017.4 0.0
03/03:00pm 12.7 7.8 8.4 75 2.1 SSW 24 39 13 21 1016.8 1016.8 0.0
03/02:30pm 13.3 8.8 8.4 72 2.4 SSW 22 35 12 19 1016.1 1016.1 0.0
03/02:00pm 13.2 9.1 8.5 73 2.3 SSW 20 33 11 18 1015.8 1015.8 0.0
03/01:30pm 12.8 8.6 8.3 74 2.2 SSW 20 39 11 21 1015.7 1015.7 0.0
03/01:00pm 13.2 9.2 9.1 76 2.1 SSW 20 32 11 17 1015.6 1015.6 0.0
03/12:30pm 13.1 9.3 9.9 81 1.6 SSW 20 33 11 18 1015.4 1015.4 0.0
03/12:00pm 13.3 9.8 10.3 82 1.6 SSW 19 32 10 17 1015.2 1015.2 0.0
03/11:30am 13.2 10.2 10.6 84 1.4 SSW 17 26 9 14 1015.0 1015.0 0.0
03/11:00am 12.7 9.6 10.2 85 1.3 SSW 17 28 9 15 1014.9 1014.9 0.0
03/10:30am 12.5 9.0 10.2 86 1.2 SSW 19 28 10 15 1014.4 1014.4 0.0
03/10:00am 12.7 9.2 10.2 85 1.3 S 19 35 10 19 1013.9 1013.9 0.0
03/09:30am 12.8 9.8 10.5 86 1.2 S 17 30 9 16 1013.3 1013.3 0.0
03/09:00am 12.5 9.4 10.4 87 1.1 SSW 17 28 9 15 1012.6 1012.6 0.0
03/08:30am 12.3 10.1 10.7 90 0.8 SSW 13 20 7 11 1012.0 1012.0 0.0
03/08:00am 12.0 9.5 10.9 93 0.6 SSW 15 24 8 13 1011.5 1011.5 0.0
03/07:30am 11.4 9.4 10.3 93 0.6 SSW 11 15 6 8 1010.9 1010.9 0.0
03/07:00am 11.2 9.6 10.1 93 0.6 SSW 9 13 5 7 1010.4 1010.4 0.0
03/06:30am 11.4 10.2 10.3 93 0.6 S 7 15 4 8 1009.9 1009.9 0.0
03/06:00am 11.7 10.5 10.4 92 0.7 S 7 11 4 6 1009.4 1009.4 0.0
03/05:30am 11.8 10.8 10.4 91 0.7 SSE 6 9 3 5 1009.2 1009.2 0.0
03/05:00am 11.9 9.9 10.3 90 0.8 SSE 11 13 6 7 1008.8 1008.8 0.0
03/04:30am 12.0 9.3 10.4 90 0.8 SSE 15 19 8 10 1008.3 1008.3 0.0
03/04:00am 11.6 8.1 8.6 82 1.5 SSE 17 24 9 13 1007.7 1007.7 0.0
03/03:30am 11.8 9.2 9.5 86 1.2 S 13 28 7 15 1007.3 1007.3 0.0
03/03:00am 12.1 9.2 9.8 86 1.2 SSE 15 20 8 11 1007.4 1007.4 0.0
03/02:30am 12.4 10.8 10.1 86 1.2 S 9 15 5 8 1007.6 1007.6 0.0
03/02:00am 12.6 10.5 9.6 82 1.5 S 11 17 6 9 1007.9 1007.9 0.0
03/01:30am 12.3 11.0 9.9 85 1.2 SSW 7 11 4 6 1007.8 1007.8 0.0
03/01:00am 12.1 11.1 10.2 88 1.0 SSW 6 9 3 5 1007.7 1007.7 0.0
03/12:30am 11.9 10.6 10.0 88 1.0 SSW 7 13 4 7 1007.7 1007.7 0.0
03/12:00am 11.8 10.4 9.7 87 1.1 SSW 7 11 4 6 1007.7 1007.7 0.0
 
Date/Time
EST
Temp
°C
App
Temp
°C
Dew
Point
Rel
Hum
%
Delta-T
°C
Wind Press
QNH
hPa
Press
MSL
hPa
Rain
since 9 am
mm
Dir
 
Spd
km/h
Gust
km/h
Spd
kts
Gust
kts
02/11:30pm 11.8 10.6 9.5 86 1.2 SSW 6 7 3 4 1007.9 1007.9 0.0
02/11:00pm 12.1 11.1 10.3 89 0.9 SSW 6 7 3 4 1008.3 1008.3 0.0
02/10:30pm 12.0 12.0 9.7 86 1.2 CALM 0 0 0 0 1008.6 1008.6 0.0
02/10:00pm 12.0 11.8 9.2 83 1.4 CALM 0 0 0 0 1008.9 1008.9 0.0
02/09:30pm 12.4 12.3 9.4 82 1.5 CALM 0 4 0 2 1009.1 1009.1 0.0
02/09:00pm 12.5 12.0 9.5 82 1.5 NE 2 4 1 2 1008.9 1008.9 0.0
02/08:30pm 13.2 11.9 7.6 69 2.7 WSW 4 6 2 3 1008.7 1008.7 0.0
02/08:00pm 13.3 11.7 8.2 71 2.5 W 6 7 3 4 1008.5 1008.5 0.0
02/07:30pm 13.5 11.9 8.6 72 2.5 WSW 7 11 4 6 1008.5 1008.5 0.0
02/07:00pm 13.4 11.6 9.5 77 2.0 WSW 9 17 5 9 1008.4 1008.4 0.0
02/06:30pm 13.7 13.0 10.1 79 1.9 SSW 4 7 2 4 1008.3 1008.3 0.0
02/06:00pm 13.7 12.5 9.6 76 2.1 S 6 11 3 6 1007.8 1007.8 0.0
02/05:30pm 13.6 12.4 9.6 77 2.0 S 6 7 3 4 1007.7 1007.7 0.0
02/05:00pm 14.2 12.8 9.6 74 2.4 SSE 7 11 4 6 1007.3 1007.3 0.0
02/04:30pm 14.9 13.1 9.3 69 2.9 ESE 9 17 5 9 1007.3 1007.3 0.0
02/04:00pm 16.0 14.0 8.5 61 3.8 ENE 9 11 5 6 1007.4 1007.4 0.0
02/03:30pm 15.9 13.5 10.2 69 3.0 E 13 15 7 8 1007.6 1007.6 0.0
02/03:00pm 16.1 14.5 8.8 62 3.7 ENE 7 9 4 5 1007.9 1007.9 0.0
02/02:30pm 16.6 14.9 9.8 64 3.6 ENE 9 11 5 6 1008.1 1008.1 0.0
02/02:00pm 17.3 14.7 9.2 59 4.2 NE 13 19 7 10 1008.5 1008.5 0.0
02/01:30pm 17.1 14.4 8.8 58 4.3 NE 13 17 7 9 1009.0 1009.0 0.0
02/01:00pm 16.4 12.8 8.4 59 4.1 N 17 24 9 13 1009.6 1009.6 0.0
02/12:30pm 17.0 15.7 9.9 63 3.7 N 7 13 4 7 1010.1 1010.1 0.0
02/12:00pm 15.0 12.2 8.7 66 3.2 N 13 15 7 8 1010.8 1010.8 0.0
02/11:30am 14.2 11.7 8.2 67 3.0 N 11 17 6 9 1011.0 1011.0 0.0
02/11:00am 15.4 13.7 8.2 62 3.6 N 7 15 4 8 1011.5 1011.5 0.0
02/10:30am 14.0 11.7 7.5 65 3.2 N 9 13 5 7 1011.8 1011.8 0.0
02/10:00am 14.4 12.8 8.6 68 2.9 NE 7 9 4 5 1012.1 1012.1 0.0
02/09:30am 12.0 9.4 7.9 76 2.0 NNE 11 15 6 8 1012.4 1012.4 0.0
02/09:00am 12.6 9.1 7.3 70 2.6 NE 15 17 8 9 1012.5 1012.5 0.2
02/08:30am 11.9 8.4 7.4 74 2.2 NE 15 17 8 9 1012.4 1012.4 0.2
02/08:00am 10.3 7.0 6.5 77 1.8 NE 13 17 7 9 1012.5 1012.5 0.2
02/07:30am 9.5 5.1 6.6 82 1.4 NE 19 22 10 12 1012.5 1012.5 0.2
02/07:00am 8.7 4.2 6.0 83 1.2 NE 19 22 10 12 1012.5 1012.5 0.2
02/06:30am 8.4 5.0 5.7 83 1.2 NNE 13 17 7 9 1012.5 1012.5 0.2
02/06:00am 8.5 4.3 5.8 83 1.2 NNE 17 20 9 11 1012.5 1012.5 0.2
02/05:30am 8.7 4.6 6.2 84 1.1 NNE 17 20 9 11 1012.6 1012.6 0.2
02/05:00am 8.5 4.7 6.0 84 1.1 NNE 15 20 8 11 1012.5 1012.5 0.2
02/04:30am 8.3 5.6 5.4 82 1.3 N 9 15 5 8 1012.6 1012.6 0.2
02/04:00am 8.4 5.4 5.9 84 1.1 NNE 11 17 6 9 1012.5 1012.5 0.2
02/03:30am 8.8 4.7 6.1 83 1.2 NNE 17 20 9 11 1012.7 1012.7 0.2
02/03:00am 8.7 5.3 5.8 82 1.3 NNE 13 20 7 11 1012.8 1012.8 0.2
02/02:30am 8.8 5.4 5.9 82 1.3 NNE 13 17 7 9 1013.3 1013.3 0.2
02/02:00am 8.6 5.2 6.1 84 1.1 NNE 13 17 7 9 1013.6 1013.6 0.2
02/01:30am 8.7 5.4 6.3 85 1.1 NNE 13 15 7 8 1013.7 1013.7 0.2
02/01:00am 8.5 4.8 6.3 86 1.0 NE 15 19 8 10 1013.6 1013.6 0.2
02/12:30am 8.7 4.3 6.7 87 0.9 NE 19 22 10 12 1013.6 1013.6 0.2
02/12:00am 8.8 3.1 6.8 87 0.9 NE 26 30 14 16 1013.6 1013.6 0.2
 
Date/Time
EST
Temp
°C
App
Temp
°C
Dew
Point
Rel
Hum
%
Delta-T
°C
Wind Press
QNH
hPa
Press
MSL
hPa
Rain
since 9 am
mm
Dir
 
Spd
km/h
Gust
km/h
Spd
kts
Gust
kts
01/11:30pm 9.2 4.0 7.2 87 0.9 NE 24 28 13 15 1013.8 1013.8 0.2
01/11:00pm 9.2 5.7 7.0 86 1.0 NNE 15 22 8 12 1014.3 1014.3 0.2
01/10:30pm 8.9 6.1 6.9 87 0.9 NE 11 15 6 8 1014.5 1014.5 0.2
01/10:00pm 8.3 6.4 6.8 90 0.7 NE 6 7 3 4 1014.6 1014.6 0.2
01/09:30pm 7.7 5.5 6.0 89 0.8 ENE 7 7 4 4 1014.5 1014.5 0.2
01/09:00pm 7.9 5.3 5.9 87 0.9 ENE 9 11 5 6 1014.7 1014.7 0.2
01/08:30pm 7.9 5.2 5.7 86 1.0 ENE 9 13 5 7 1014.4 1014.4 0.2
01/08:00pm 8.3 5.6 5.6 83 1.2 E 9 13 5 7 1014.4 1014.4 0.2
01/07:30pm 9.0 5.6 5.9 81 1.4 E 13 17 7 9 1014.3 1014.3 0.2
01/07:00pm 9.5 5.0 5.9 78 1.6 ESE 19 22 10 12 1014.1 1014.1 0.2
01/06:30pm 9.8 6.1 6.2 78 1.7 ESE 15 20 8 11 1014.1 1014.1 0.2
01/06:00pm 10.0 6.7 6.2 77 1.8 SE 13 20 7 11 1013.9 1013.9 0.2
01/05:30pm 10.2 7.9 5.8 74 2.0 SE 7 11 4 6 1013.9 1013.9 0.2
01/05:00pm 11.0 8.9 5.7 70 2.4 SSE 6 9 3 5 1014.0 1014.0 0.2
01/04:30pm 12.0 9.9 5.6 65 3.0 S 6 9 3 5 1014.0 1014.0 0.2
01/04:00pm 11.9 9.7 5.5 65 3.0 S 6 9 3 5 1014.1 1014.1 0.2

Other Formats:

Comma delimited format used in spreadsheet applications
http://www.bom.gov.au/fwo/IDV60801/IDV60801.94892.axf

JavaScript Object Notation format (JSON) in row-major order
http://www.bom.gov.au/fwo/IDV60801/IDV60801.94892.json